Time;durP1;ratioP1;P1;durP2;ratioP2;P2;SDS_P1;SDS_P2;PMS_P1;PMS_P2;Temp;Humidity;BMP_temperature;BMP_pressure;BME280_temperature;BME280_humidity;BME280_pressure;Samples;Min_cycle;Max_cycle;Signal;HPM_P1;HPM_P2
2021/01/09 00:00:33;;;;;;;10.50;8.57;;;;;;;;;;5106819;28;20024;-56
2021/01/09 00:03:26;;;;;;;12.00;9.30;;;;;;;;;;5106289;28;20028;-55
2021/01/09 00:09:09;;;;;;;11.20;8.70;;;;;;;;;;5052317;28;20039;-53
2021/01/09 00:11:49;;;;;;;9.87;8.07;;;;;;;;;;5105508;28;20419;-57
2021/01/09 00:14:35;;;;;;;9.98;8.43;;;;;;;;;;5105861;28;20032;-55
2021/01/09 00:17:16;;;;;;;11.03;8.27;;;;;;;;;;5106250;28;20020;-56
2021/01/09 00:20:17;;;;;;;10.60;8.43;;;;;;;;;;5106243;28;20027;-57
2021/01/09 00:22:52;;;;;;;11.33;9.20;;;;;;;;;;5089955;28;20128;-57
2021/01/09 00:31:52;;;;;;;12.37;7.83;;;;;;;;;;5022823;28;20038;-57
2021/01/09 00:37:38;;;;;;;11.70;9.00;;;;;;;;;;5086726;28;20036;-55
2021/01/09 00:40:21;;;;;;;14.33;9.20;;;;;;;;;;5126807;28;20136;-55
2021/01/09 00:43:05;;;;;;;10.97;9.03;;;;;;;;;;5107971;28;20031;-57
2021/01/09 00:45:40;;;;;;;13.47;8.97;;;;;;;;;;5107994;28;20039;-57
2021/01/09 00:48:16;;;;;;;9.53;8.10;;;;;;;;;;5124072;28;20043;-57
2021/01/09 00:50:55;;;;;;;12.60;9.23;;;;;;;;;;5124553;28;20043;-55
2021/01/09 00:53:51;;;;;;;12.13;9.27;;;;;;;;;;5123859;28;20045;-56
2021/01/09 01:02:45;;;;;;;11.80;10.53;;;;;;;;;;5059081;28;20040;-57
2021/01/09 01:05:36;;;;;;;9.77;8.67;;;;;;;;;;5124301;28;20032;-56
2021/01/09 01:11:00;;;;;;;12.20;10.07;;;;;;;;;;5112849;28;20002;-54
2021/01/09 01:13:49;;;;;;;14.40;9.57;;;;;;;;;;5123635;28;20030;-55
2021/01/09 01:16:21;;;;;;;14.33;8.90;;;;;;;;;;5122562;28;20063;-57
2021/01/09 01:19:15;;;;;;;;;;;;;;;;;;;;;
2021/01/09 01:22:14;;;;;;;9.80;8.77;;;;;;;;;;5118615;28;20106;-56
2021/01/09 01:24:56;;;;;;;10.67;8.93;;;;;;;;;;5020543;28;20073;-55
2021/01/09 01:27:39;;;;;;;11.47;8.40;;;;;;;;;;5020122;28;20495;-56
2021/01/09 01:33:43;;;;;;;15.13;10.47;;;;;;;;;;5070433;28;20068;-56
2021/01/09 01:36:25;;;;;;;12.60;9.73;;;;;;;;;;5103007;28;20028;-58
2021/01/09 01:38:54;;;;;;;14.87;9.03;;;;;;;;;;5102706;28;20024;-54
2021/01/09 01:41:35;;;;;;;13.17;9.77;;;;;;;;;;5101911;28;20028;-57
2021/01/09 01:44:23;;;;;;;11.57;8.73;;;;;;;;;;5101870;28;20031;-56
2021/01/09 01:47:19;;;;;;;10.40;8.87;;;;;;;;;;5102229;28;20079;-57
2021/01/09 01:50:19;;;;;;;12.07;8.57;;;;;;;;;;5101953;28;20466;-56
2021/01/09 01:53:06;;;;;;;12.73;8.63;;;;;;;;;;5102904;28;20032;-58
2021/01/09 01:55:49;;;;;;;11.00;8.47;;;;;;;;;;5102471;28;20028;-57
2021/01/09 01:58:30;;;;;;;12.63;8.93;;;;;;;;;;5087219;28;20448;-55
2021/01/09 02:01:11;;;;;;;11.90;9.60;;;;;;;;;;5081846;28;20031;-55
2021/01/09 02:03:58;;;;;;;12.18;9.02;;;;;;;;;;5084292;28;20062;-57
2021/01/09 02:06:55;;;;;;;11.00;9.13;;;;;;;;;;5101932;28;20029;-56
2021/01/09 02:09:43;;;;;;;13.83;10.07;;;;;;;;;;5095364;28;20115;-57
2021/01/09 02:12:44;;;;;;;10.80;9.17;;;;;;;;;;5101153;28;20028;-58
2021/01/09 02:15:30;;;;;;;10.45;8.02;;;;;;;;;;5100857;28;20047;-56
2021/01/09 02:18:04;;;;;;;10.20;8.60;;;;;;;;;;5101152;28;20466;-57
2021/01/09 02:20:41;;;;;;;13.07;9.97;;;;;;;;;;5082420;28;20023;-56
2021/01/09 02:23:25;;;;;;;14.00;9.20;;;;;;;;;;5101262;28;20024;-57
2021/01/09 02:31:51;;;;;;;11.67;7.67;;;;;;;;;;5107692;28;20059;-57
2021/01/09 02:34:28;;;;;;;14.07;9.90;;;;;;;;;;5120852;28;20024;-55
2021/01/09 02:40:00;;;;;;;11.23;9.60;;;;;;;;;;4978616;28;20384;-57
2021/01/09 02:42:48;;;;;;;15.70;12.03;;;;;;;;;;5074820;28;20044;-57
2021/01/09 02:48:49;;;;;;;;;;;;;;;;;;;;;
2021/01/09 02:51:22;;;;;;;14.13;10.83;;;;;;;;;;5074609;28;20092;-58
2021/01/09 02:54:00;;;;;;;15.93;11.43;;;;;;;;;;5078184;28;20139;-55
2021/01/09 03:02:43;;;;;;;14.77;11.13;;;;;;;;;;5067452;28;20484;-58
2021/01/09 03:08:03;;;;;;;15.35;10.55;;;;;;;;;;5078378;28;20040;-57
2021/01/09 03:10:49;;;;;;;17.90;12.50;;;;;;;;;;5089356;28;20035;-57
2021/01/09 03:13:45;;;;;;;16.67;12.67;;;;;;;;;;5121511;28;20030;-56
2021/01/09 03:16:35;;;;;;;14.00;11.70;;;;;;;;;;5091221;28;20051;-56
2021/01/09 03:19:20;;;;;;;15.18;12.73;;;;;;;;;;5121397;28;20147;-58
2021/01/09 03:22:00;;;;;;;16.63;13.50;;;;;;;;;;5121263;28;20026;-55
2021/01/09 03:24:39;;;;;;;14.47;12.00;;;;;;;;;;5120537;28;20057;-55
2021/01/09 03:27:47;;;;;;;;;;;;;;;;;;;;;
2021/01/09 03:30:41;;;;;;;14.60;12.00;;;;;;;;;;5120275;28;20087;-55
2021/01/09 03:33:21;;;;;;;12.83;11.53;;;;;;;;;;5085070;28;20114;-58
2021/01/09 03:36:21;;;;;;;14.90;12.57;;;;;;;;;;5120794;28;20034;-56
2021/01/09 03:44:58;;;;;;;18.63;12.60;;;;;;;;;;5120555;28;20046;-57
2021/01/09 03:47:43;;;;;;;16.33;11.43;;;;;;;;;;5100379;28;20339;-57
2021/01/09 03:50:21;;;;;;;18.97;12.70;;;;;;;;;;5119617;28;20035;-58
2021/01/09 03:55:46;;;;;;;17.60;13.63;;;;;;;;;;5107495;28;20093;-58
2021/01/09 03:58:43;;;;;;;18.60;11.97;;;;;;;;;;5120358;28;20472;-57
2021/01/09 04:04:06;;;;;;;20.13;15.37;;;;;;;;;;5119844;28;20028;-56
2021/01/09 04:06:41;;;;;;;16.60;11.20;;;;;;;;;;5100121;28;20035;-57
2021/01/09 04:18:36;;;;;;;;;;;;;;;;;;;;;
2021/01/09 04:21:32;;;;;;;19.70;14.93;;;;;;;;;;5057581;28;20100;-57
2021/01/09 04:24:10;;;;;;;18.00;14.43;;;;;;;;;;5059785;28;20033;-58
2021/01/09 04:26:56;;;;;;;17.87;14.27;;;;;;;;;;5123233;28;20054;-57
2021/01/09 04:29:31;;;;;;;18.97;14.30;;;;;;;;;;5106120;28;20042;-58
2021/01/09 04:32:06;;;;;;;23.00;14.53;;;;;;;;;;5097117;28;20042;-57
2021/01/09 04:34:35;;;;;;;18.20;14.30;;;;;;;;;;5098899;28;20504;-55
2021/01/09 04:43:41;;;;;;;20.52;15.13;;;;;;;;;;5117670;28;20050;-57
2021/01/09 04:46:17;;;;;;;21.20;15.97;;;;;;;;;;5117190;28;20039;-56
2021/01/09 04:48:50;;;;;;;23.03;14.60;;;;;;;;;;5117800;28;20073;-57
2021/01/09 04:57:47;;;;;;;19.77;15.23;;;;;;;;;;5104067;28;20027;-56
2021/01/09 05:00:46;;;;;;;19.60;17.27;;;;;;;;;;5116576;28;20031;-57
2021/01/09 05:03:27;;;;;;;20.73;14.10;;;;;;;;;;5116056;28;20028;-57
2021/01/09 05:06:20;;;;;;;24.17;16.08;;;;;;;;;;5118005;28;20055;-57
2021/01/09 05:09:12;;;;;;;20.30;16.00;;;;;;;;;;5079673;28;20038;-57
2021/01/09 05:11:55;;;;;;;17.70;15.77;;;;;;;;;;5098628;28;20554;-57
2021/01/09 05:14:53;;;;;;;24.00;18.10;;;;;;;;;;5117506;28;20077;-57
2021/01/09 05:17:49;;;;;;;21.23;16.17;;;;;;;;;;5116576;28;20428;-58
2021/01/09 05:20:24;;;;;;;23.27;18.10;;;;;;;;;;5117676;28;20026;-58
2021/01/09 05:23:18;;;;;;;26.50;16.07;;;;;;;;;;5117469;28;20514;-57
2021/01/09 05:26:23;;;;;;;21.83;16.80;;;;;;;;;;5106520;28;20039;-57
2021/01/09 05:29:08;;;;;;;23.20;16.60;;;;;;;;;;5033338;28;20491;-57
2021/01/09 05:31:48;;;;;;;21.13;15.40;;;;;;;;;;5017417;28;20041;-57
2021/01/09 05:34:30;;;;;;;22.58;17.65;;;;;;;;;;5034420;28;20537;-58
2021/01/09 05:37:23;;;;;;;19.90;16.90;;;;;;;;;;5016169;28;20030;-56
2021/01/09 05:40:15;;;;;;;21.70;15.57;;;;;;;;;;5034383;28;20040;-57
2021/01/09 05:45:57;;;;;;;20.00;17.40;;;;;;;;;;4990140;28;20043;-56
2021/01/09 05:48:39;;;;;;;22.53;16.77;;;;;;;;;;5097040;28;20454;-58
2021/01/09 05:57:34;;;;;;;19.50;16.10;;;;;;;;;;5072821;28;20043;-57
2021/01/09 06:00:12;;;;;;;26.60;15.97;;;;;;;;;;5066561;28;20032;-57
2021/01/09 06:03:06;;;;;;;23.23;16.13;;;;;;;;;;5078496;28;20031;-58
2021/01/09 06:05:49;;;;;;;23.57;16.57;;;;;;;;;;5077954;28;20024;-57
2021/01/09 06:11:50;;;;;;;23.27;16.63;;;;;;;;;;5021478;28;20056;-58
2021/01/09 06:14:29;;;;;;;24.33;19.13;;;;;;;;;;5047094;28;20557;-58
2021/01/09 06:17:10;;;;;;;24.93;15.87;;;;;;;;;;5096406;28;20055;-58
2021/01/09 06:19:56;;;;;;;21.02;13.00;;;;;;;;;;5097080;28;20028;-56
2021/01/09 06:22:43;;;;;;;27.73;19.00;;;;;;;;;;5096673;28;20066;-57
2021/01/09 06:25:47;;;;;;;27.47;19.27;;;;;;;;;;5096025;28;20089;-58
2021/01/09 06:28:41;;;;;;;22.93;16.47;;;;;;;;;;4994909;28;20109;-55
2021/01/09 06:31:24;;;;;;;33.90;19.23;;;;;;;;;;5014561;28;20042;-57
2021/01/09 06:37:22;;;;;;;25.77;16.13;;;;;;;;;;5102998;28;20123;-57
2021/01/09 06:40:07;;;;;;;;;;;;;;;;;;;;;
2021/01/09 06:42:53;;;;;;;27.47;18.33;;;;;;;;;;5100971;28;20076;-57
2021/01/09 06:45:40;;;;;;;22.93;17.67;;;;;;;;;;5085487;28;20036;-58
2021/01/09 06:48:26;;;;;;;21.87;17.63;;;;;;;;;;5115086;28;20070;-57
2021/01/09 06:51:39;;;;;;;27.77;20.50;;;;;;;;;;5115074;28;20035;-55
2021/01/09 07:04:07;;;;;;;27.90;18.60;;;;;;;;;;4973596;28;20081;-57
2021/01/09 07:07:15;;;;;;;;;;;;;;;;;;;;;
2021/01/09 07:10:12;;;;;;;25.23;20.40;;;;;;;;;;5038962;28;20044;-55
2021/01/09 07:13:00;;;;;;;25.67;18.70;;;;;;;;;;5051886;28;20032;-57
2021/01/09 07:15:32;;;;;;;21.70;18.27;;;;;;;;;;5038520;28;20033;-58
2021/01/09 07:18:16;;;;;;;23.13;18.30;;;;;;;;;;5050060;28;20037;-56
2021/01/09 07:20:58;;;;;;;28.00;18.07;;;;;;;;;;5035654;28;20548;-58
2021/01/09 07:29:57;;;;;;;31.60;20.97;;;;;;;;;;5043877;28;20045;-58
2021/01/09 07:32:35;;;;;;;28.17;20.13;;;;;;;;;;5068420;28;20032;-57
2021/01/09 07:37:58;;;;;;;27.30;19.00;;;;;;;;;;5094467;28;20097;-57
2021/01/09 07:40:41;;;;;;;;;;;;;;;;;;;;;
2021/01/09 07:43:38;;;;;;;29.03;20.50;;;;;;;;;;5086131;28;20040;-57
2021/01/09 07:49:57;;;;;;;28.63;20.20;;;;;;;;;;5037983;28;20028;-58
2021/01/09 07:52:40;;;;;;;25.53;20.17;;;;;;;;;;5094449;28;20025;-57
2021/01/09 07:58:46;;;;;;;26.27;21.60;;;;;;;;;;5044199;28;20032;-58
2021/01/09 08:01:36;;;;;;;28.30;21.65;;;;;;;;;;5078121;28;20073;-56
2021/01/09 08:04:09;;;;;;;24.53;18.17;;;;;;;;;;5098195;28;20024;-57
2021/01/09 08:06:51;;;;;;;21.13;17.53;;;;;;;;;;5098836;28;20675;-58
2021/01/09 08:09:41;;;;;;;24.57;20.10;;;;;;;;;;5096252;28;20473;-58
2021/01/09 08:12:42;;;;;;;23.77;17.47;;;;;;;;;;5098307;28;20353;-57
2021/01/09 08:18:10;;;;;;;24.57;17.40;;;;;;;;;;5098086;28;20547;-57
2021/01/09 08:20:46;;;;;;;22.83;18.67;;;;;;;;;;5094466;28;20032;-57
2021/01/09 08:23:34;;;;;;;26.23;19.73;;;;;;;;;;5098455;28;20120;-57
2021/01/09 08:26:19;;;;;;;26.23;21.07;;;;;;;;;;5099140;28;20039;-57
2021/01/09 08:29:15;;;;;;;32.80;21.80;;;;;;;;;;5081140;28;20032;-55
2021/01/09 08:32:03;;;;;;;26.83;18.20;;;;;;;;;;5114904;28;20036;-57
2021/01/09 08:34:46;;;;;;;26.50;19.63;;;;;;;;;;5116717;28;20036;-55
2021/01/09 08:37:54;;;;;;;23.23;17.47;;;;;;;;;;5119278;28;20031;-57
2021/01/09 08:44:10;;;;;;;34.03;17.57;;;;;;;;;;4972330;28;20034;-58
2021/01/09 08:47:04;;;;;;;25.00;17.43;;;;;;;;;;5008314;28;20038;-58
2021/01/09 08:49:52;;;;;;;29.43;20.00;;;;;;;;;;5103615;28;20089;-57
2021/01/09 08:56:00;;;;;;;32.23;19.67;;;;;;;;;;5088474;28;20059;-58
2021/01/09 09:01:58;;;;;;;;;;;;;;;;;;;;;
2021/01/09 09:04:35;;;;;;;25.93;19.03;;;;;;;;;;5054601;28;20021;-57
2021/01/09 09:07:29;;;;;;;30.80;23.70;;;;;;;;;;5117807;28;20028;-56
2021/01/09 09:10:14;;;;;;;29.70;20.13;;;;;;;;;;5113868;28;20107;-56
2021/01/09 09:12:49;;;;;;;31.03;21.20;;;;;;;;;;5116844;28;20035;-57
2021/01/09 09:15:37;;;;;;;36.07;24.33;;;;;;;;;;5116551;28;20124;-58
2021/01/09 09:18:29;;;;;;;22.70;20.23;;;;;;;;;;5098193;28;20048;-57
2021/01/09 09:21:48;;;;;;;26.23;19.30;;;;;;;;;;5108132;28;20118;-58
2021/01/09 09:24:40;;;;;;;27.53;21.33;;;;;;;;;;5033590;28;20025;-57
2021/01/09 09:30:58;;;;;;;31.20;23.23;;;;;;;;;;5108074;28;20184;-57
2021/01/09 09:33:55;;;;;;;24.10;15.70;;;;;;;;;;5097653;28;20036;-57
2021/01/09 09:36:24;;;;;;;19.47;14.80;;;;;;;;;;5114526;28;20043;-56
2021/01/09 09:39:24;;;;;;;31.10;19.80;;;;;;;;;;5116678;28;20049;-58
2021/01/09 09:42:05;;;;;;;32.57;22.70;;;;;;;;;;5112440;28;20054;-57
2021/01/09 09:44:44;;;;;;;30.23;22.37;;;;;;;;;;5098262;28;20027;-57
2021/01/09 09:47:37;;;;;;;30.30;23.00;;;;;;;;;;5115513;28;20035;-57
2021/01/09 09:50:29;;;;;;;32.10;24.80;;;;;;;;;;5116245;28;20462;-57
2021/01/09 09:53:17;;;;;;;34.33;20.67;;;;;;;;;;5116912;28;20027;-56
2021/01/09 09:55:55;;;;;;;34.73;23.03;;;;;;;;;;5116140;28;20041;-58
2021/01/09 09:58:30;;;;;;;27.37;19.07;;;;;;;;;;5114735;28;20040;-57
2021/01/09 10:01:16;;;;;;;;;;;;;;;;;;;;;
2021/01/09 10:06:58;;;;;;;21.60;17.30;;;;;;;;;;5116603;28;20047;-57
2021/01/09 10:09:33;;;;;;;26.63;19.70;;;;;;;;;;5116838;28;20457;-58
2021/01/09 10:12:12;;;;;;;31.50;20.10;;;;;;;;;;5116595;28;20026;-57
2021/01/09 10:14:58;;;;;;;24.03;16.43;;;;;;;;;;5106337;28;20028;-56
2021/01/09 10:21:03;;;;;;;24.70;17.40;;;;;;;;;;5079793;28;20503;-57
2021/01/09 10:23:50;;;;;;;25.80;18.77;;;;;;;;;;5115236;28;20065;-58
2021/01/09 10:26:35;;;;;;;22.97;15.30;;;;;;;;;;5105519;28;20027;-56
2021/01/09 10:32:21;;;;;;;24.57;15.93;;;;;;;;;;5116014;28;20381;-57
2021/01/09 10:35:22;;;;;;;25.77;17.40;;;;;;;;;;5097732;28;20043;-58
2021/01/09 10:38:02;;;;;;;20.57;16.80;;;;;;;;;;5097067;28;20039;-58
2021/01/09 10:40:51;;;;;;;28.00;17.40;;;;;;;;;;5106592;28;20036;-58
2021/01/09 10:43:44;;;;;;;21.07;16.20;;;;;;;;;;5115662;28;20024;-57
2021/01/09 10:46:28;;;;;;;23.27;15.20;;;;;;;;;;5112702;28;20043;-58
2021/01/09 10:49:09;;;;;;;19.40;16.20;;;;;;;;;;5113086;28;20456;-56
2021/01/09 10:51:59;;;;;;;20.23;15.67;;;;;;;;;;5116568;28;20030;-57
2021/01/09 10:55:05;;;;;;;14.73;13.03;;;;;;;;;;5066451;28;20119;-57
2021/01/09 11:00:42;;;;;;;21.93;14.73;;;;;;;;;;5102045;28;20031;-57
2021/01/09 11:06:30;;;;;;;17.03;13.00;;;;;;;;;;5103291;28;20181;-57
2021/01/09 11:09:16;;;;;;;19.40;15.23;;;;;;;;;;5115912;28;20030;-55
2021/01/09 11:11:54;;;;;;;18.10;14.63;;;;;;;;;;5115657;28;20088;-58
2021/01/09 11:14:52;;;;;;;;;;;;;;;;;;;;;
2021/01/09 11:17:27;;;;;;;19.33;13.63;;;;;;;;;;5099265;28;20041;-57
2021/01/09 11:20:18;;;;;;;11.93;9.97;;;;;;;;;;5094521;28;20044;-54
2021/01/09 11:22:54;;;;;;;17.75;10.02;;;;;;;;;;5114777;28;20024;-57
2021/01/09 11:28:24;;;;;;;23.50;13.53;;;;;;;;;;5114368;28;20035;-57
2021/01/09 11:31:15;;;;;;;20.90;13.23;;;;;;;;;;5092499;28;20044;-57
2021/01/09 11:33:46;;;;;;;20.73;14.20;;;;;;;;;;5092868;28;20032;-58
2021/01/09 11:36:33;;;;;;;24.77;14.93;;;;;;;;;;5090957;28;20114;-55
2021/01/09 11:39:24;;;;;;;19.20;13.00;;;;;;;;;;5091168;28;20497;-57
2021/01/09 11:42:03;;;;;;;18.63;12.07;;;;;;;;;;5093166;28;20115;-56
2021/01/09 11:44:41;;;;;;;14.83;11.37;;;;;;;;;;5093606;28;20119;-56
2021/01/09 11:47:19;;;;;;;13.20;10.67;;;;;;;;;;5094115;28;20133;-57
2021/01/09 11:50:02;;;;;;;20.07;12.53;;;;;;;;;;5092668;28;20027;-54
2021/01/09 11:52:56;;;;;;;;;;;;;;;;;;;;;
2021/01/09 11:55:50;;;;;;;15.93;12.03;;;;;;;;;;5090445;28;20040;-57
2021/01/09 12:04:47;;;;;;;12.77;10.93;;;;;;;;;;5091646;28;20031;-56
2021/01/09 12:07:41;;;;;;;;;;;;;;;;;;;;;
2021/01/09 12:10:13;;;;;;;10.73;8.30;;;;;;;;;;5093762;28;20385;-55
2021/01/09 12:12:46;;;;;;;9.93;6.67;;;;;;;;;;5094384;28;20035;-57
2021/01/09 12:15:41;;;;;;;;;;;;;;;;;;;;;
2021/01/09 12:18:47;;;;;;;10.57;8.87;;;;;;;;;;5091625;28;20044;-53
2021/01/09 12:21:28;;;;;;;11.10;8.77;;;;;;;;;;5093802;28;20031;-58
2021/01/09 12:24:11;;;;;;;;;;;;;;;;;;;;;
2021/01/09 12:26:53;;;;;;;12.30;8.70;;;;;;;;;;5094641;28;20120;-56
2021/01/09 12:29:37;;;;;;;11.10;9.83;;;;;;;;;;5082727;28;20470;-57
2021/01/09 12:32:24;;;;;;;11.07;9.33;;;;;;;;;;5114974;28;20469;-57
2021/01/09 12:35:21;;;;;;;8.77;6.43;;;;;;;;;;5114683;28;20485;-57
2021/01/09 12:38:03;;;;;;;;;;;;;;;;;;;;;
2021/01/09 12:40:59;;;;;;;11.40;8.17;;;;;;;;;;5109888;28;20103;-57
2021/01/09 12:43:44;;;;;;;11.00;6.87;;;;;;;;;;5114404;28;20396;-57
2021/01/09 12:46:16;;;;;;;9.53;7.50;;;;;;;;;;5118905;28;20377;-58
2021/01/09 12:49:18;;;;;;;11.40;8.27;;;;;;;;;;5118850;28;20048;-57
2021/01/09 12:55:00;;;;;;;10.37;7.17;;;;;;;;;;5074579;28;20028;-58
2021/01/09 13:00:44;;;;;;;10.97;7.93;;;;;;;;;;5117858;28;20032;-57
2021/01/09 13:03:31;;;;;;;9.43;6.80;;;;;;;;;;5098938;28;20035;-58
2021/01/09 13:06:26;;;;;;;10.07;6.73;;;;;;;;;;5099728;28;20039;-58
2021/01/09 13:09:12;;;;;;;9.57;7.07;;;;;;;;;;5115468;28;20046;-58
2021/01/09 13:11:44;;;;;;;13.23;6.00;;;;;;;;;;5110452;28;20407;-56
2021/01/09 13:14:20;;;;;;;8.23;6.50;;;;;;;;;;5118411;28;20368;-59
2021/01/09 13:16:55;;;;;;;6.70;6.00;;;;;;;;;;5118518;28;20487;-59
2021/01/09 13:19:25;;;;;;;8.73;6.20;;;;;;;;;;5116326;28;20020;-59
2021/01/09 13:22:40;;;;;;;8.53;5.67;;;;;;;;;;5117210;28;20019;-59
2021/01/09 13:25:22;;;;;;;4.47;3.90;;;;;;;;;;5095883;28;20043;-59
2021/01/09 13:27:57;;;;;;;9.67;6.73;;;;;;;;;;5116711;28;20016;-59
2021/01/09 13:30:36;;;;;;;9.77;5.77;;;;;;;;;;5115576;28;20047;-59
2021/01/09 13:33:05;;;;;;;7.70;5.60;;;;;;;;;;5112633;28;20036;-59
2021/01/09 13:36:00;;;;;;;8.87;4.73;;;;;;;;;;5098117;28;20036;-59
2021/01/09 13:42:05;;;;;;;8.87;5.57;;;;;;;;;;5013697;28;20038;-59
2021/01/09 13:45:07;;;;;;;7.73;5.80;;;;;;;;;;5012174;28;20176;-58
2021/01/09 13:47:56;;;;;;;7.83;5.97;;;;;;;;;;4997667;28;20052;-59
2021/01/09 13:51:00;;;;;;;9.13;6.63;;;;;;;;;;4997783;28;20041;-59
2021/01/09 13:56:46;;;;;;;9.43;5.97;;;;;;;;;;5016172;28;20034;-59
2021/01/09 13:59:46;;;;;;;11.07;5.83;;;;;;;;;;5034127;28;20503;-59
2021/01/09 14:02:17;;;;;;;8.20;6.87;;;;;;;;;;5006811;28;20522;-58
2021/01/09 14:05:03;;;;;;;;;;;;;;;;;;;;;
2021/01/09 14:10:45;;;;;;;9.00;6.53;;;;;;;;;;5030778;28;20029;-59
2021/01/09 14:13:42;;;;;;;11.95;7.28;;;;;;;;;;5097767;28;20089;-59
2021/01/09 14:16:17;;;;;;;10.80;6.23;;;;;;;;;;5116183;28;20446;-59
2021/01/09 14:18:50;;;;;;;7.90;6.27;;;;;;;;;;5116031;28;20489;-59
2021/01/09 14:21:27;;;;;;;9.67;7.77;;;;;;;;;;5099222;28;20031;-59
2021/01/09 14:24:25;;;;;;;11.20;7.97;;;;;;;;;;5098574;28;20422;-59
2021/01/09 14:27:19;;;;;;;7.90;6.03;;;;;;;;;;5107791;28;20043;-58
2021/01/09 14:29:57;;;;;;;10.97;7.87;;;;;;;;;;5105881;28;20035;-59
2021/01/09 14:35:19;;;;;;;8.00;6.27;;;;;;;;;;5069268;28;20125;-59
2021/01/09 14:38:03;;;;;;;9.20;7.63;;;;;;;;;;5095056;28;20028;-59
2021/01/09 14:43:31;;;;;;;10.30;8.37;;;;;;;;;;5089346;28;20101;-59
2021/01/09 14:46:20;;;;;;;12.73;8.83;;;;;;;;;;5095163;28;20046;-59
2021/01/09 14:49:34;;;;;;;10.10;7.60;;;;;;;;;;5076492;28;20028;-59
2021/01/09 14:52:29;;;;;;;12.03;7.97;;;;;;;;;;5095092;28;20020;-59
2021/01/09 14:55:01;;;;;;;10.20;7.93;;;;;;;;;;5079795;28;20039;-59
2021/01/09 14:58:05;;;;;;;13.57;7.03;;;;;;;;;;5094627;28;20385;-58
2021/01/09 15:00:39;;;;;;;11.47;7.60;;;;;;;;;;5094837;28;20024;-59
2021/01/09 15:03:17;;;;;;;11.60;7.40;;;;;;;;;;5093160;28;20450;-59
2021/01/09 15:06:08;;;;;;;9.90;6.90;;;;;;;;;;5042621;28;20498;-59
2021/01/09 15:08:48;;;;;;;;;;;;;;;;;;;;;
2021/01/09 15:14:41;;;;;;;10.10;6.40;;;;;;;;;;5058524;28;20035;-59
2021/01/09 15:17:26;;;;;;;10.77;6.83;;;;;;;;;;5076233;28;20061;-60
2021/01/09 15:20:11;;;;;;;15.33;8.93;;;;;;;;;;5075118;28;20048;-57
2021/01/09 15:23:04;;;;;;;10.63;7.87;;;;;;;;;;5094516;28;20024;-58
2021/01/09 15:25:38;;;;;;;13.83;8.07;;;;;;;;;;5095248;28;20142;-58
2021/01/09 15:28:24;;;;;;;;;;;;;;;;;;;;;
2021/01/09 15:31:02;;;;;;;11.70;6.93;;;;;;;;;;5086816;28;20039;-58
2021/01/09 15:34:13;;;;;;;;;;;;;;;;;;;;;
2021/01/09 15:36:52;;;;;;;14.23;7.43;;;;;;;;;;5114232;28;20036;-58
2021/01/09 15:39:44;;;;;;;9.23;7.03;;;;;;;;;;5093710;28;20040;-59
2021/01/09 15:42:47;;;;;;;;;;;;;;;;;;;;;
2021/01/09 15:45:20;;;;;;;10.83;7.07;;;;;;;;;;5114489;28;20031;-59
2021/01/09 15:48:04;;;;;;;11.50;7.10;;;;;;;;;;5095820;28;20473;-59
2021/01/09 15:50:30;;;;;;;14.70;6.73;;;;;;;;;;5095087;28;20032;-59
2021/01/09 15:53:05;;;;;;;8.70;6.60;;;;;;;;;;5078420;28;20036;-59
2021/01/09 15:55:46;;;;;;;13.67;8.83;;;;;;;;;;5114125;28;20027;-59
2021/01/09 15:58:21;;;;;;;;;;;;;;;;;;5095870;28;20035;-58
2021/01/09 16:03:49;;;;;;;11.37;8.57;;;;;;;;;;5096241;28;20036;-59
2021/01/09 16:06:44;;;;;;;6.93;6.23;;;;;;;;;;5114313;28;20035;-59
2021/01/09 16:09:44;;;;;;;;;;;;;;;;;;;;;
2021/01/09 16:12:27;;;;;;;10.60;6.78;;;;;;;;;;5113879;28;20083;-59
2021/01/09 16:15:02;;;;;;;10.33;6.47;;;;;;;;;;5114768;28;20539;-59
2021/01/09 16:17:47;;;;;;;;;;;;;;;;;;;;;
2021/01/09 16:23:21;;;;;;;9.67;7.43;;;;;;;;;;5051724;28;20032;-59
2021/01/09 16:26:01;;;;;;;8.70;7.00;;;;;;;;;;5097520;28;20059;-59
2021/01/09 16:29:09;;;;;;;11.13;9.18;;;;;;;;;;5118795;28;20485;-58
2021/01/09 16:31:53;;;;;;;11.65;6.70;;;;;;;;;;5112191;28;20048;-59
2021/01/09 16:34:33;;;;;;;10.70;7.20;;;;;;;;;;5117574;28;20461;-59
2021/01/09 16:37:28;;;;;;;18.13;9.43;;;;;;;;;;5118627;28;20118;-58
2021/01/09 16:46:48;;;;;;;11.10;8.00;;;;;;;;;;5015173;28;20456;-58
2021/01/09 16:49:42;;;;;;;11.55;7.93;;;;;;;;;;5015907;28;20476;-58
2021/01/09 16:52:24;;;;;;;8.17;7.23;;;;;;;;;;5100114;28;20042;-58
2021/01/09 16:58:10;;;;;;;10.60;7.47;;;;;;;;;;5054948;28;20478;-58
2021/01/09 17:00:51;;;;;;;7.10;5.10;;;;;;;;;;5055242;28;20033;-59
2021/01/09 17:03:20;;;;;;;10.73;7.30;;;;;;;;;;5094660;28;20043;-58
2021/01/09 17:06:10;;;;;;;8.70;7.27;;;;;;;;;;5057850;28;20082;-58
2021/01/09 17:08:46;;;;;;;7.70;6.20;;;;;;;;;;5075404;28;20112;-58
2021/01/09 17:11:52;;;;;;;11.23;7.50;;;;;;;;;;5075203;28;20025;-58
2021/01/09 17:20:34;;;;;;;8.57;6.60;;;;;;;;;;5057268;28;20071;-58
2021/01/09 17:23:29;;;;;;;9.07;6.57;;;;;;;;;;5058855;28;20738;-58
2021/01/09 17:26:02;;;;;;;8.80;6.20;;;;;;;;;;5049898;28;20090;-58
2021/01/09 17:28:56;;;;;;;10.03;8.00;;;;;;;;;;5075427;28;20353;-58
2021/01/09 17:31:29;;;;;;;8.13;6.53;;;;;;;;;;5075167;28;20051;-59
2021/01/09 17:34:26;;;;;;;8.20;7.30;;;;;;;;;;5032698;28;20115;-59
2021/01/09 17:40:10;;;;;;;11.10;7.97;;;;;;;;;;5073931;28;20112;-59
2021/01/09 17:42:50;;;;;;;11.90;8.40;;;;;;;;;;5073269;28;20037;-59
2021/01/09 17:48:32;;;;;;;11.37;8.07;;;;;;;;;;5052278;28;20032;-58
2021/01/09 17:51:03;;;;;;;11.93;9.23;;;;;;;;;;5073343;28;20032;-58
2021/01/09 17:59:44;;;;;;;13.23;7.90;;;;;;;;;;5013572;28;20038;-57
2021/01/09 18:02:19;;;;;;;10.82;8.63;;;;;;;;;;4996863;28;20033;-55
2021/01/09 18:05:11;;;;;;;13.87;9.13;;;;;;;;;;5022749;28;20037;-57
2021/01/09 18:07:40;;;;;;;9.20;6.63;;;;;;;;;;5033976;28;20025;-57
2021/01/09 18:13:46;;;;;;;12.97;8.00;;;;;;;;;;4974108;28;20026;-57
2021/01/09 18:19:45;;;;;;;11.20;8.20;;;;;;;;;;5010402;28;20378;-58
2021/01/09 18:22:22;;;;;;;10.90;7.97;;;;;;;;;;5032056;28;20063;-56
2021/01/09 18:25:08;;;;;;;13.47;8.40;;;;;;;;;;5116243;28;20031;-58
2021/01/09 18:27:55;;;;;;;12.43;8.83;;;;;;;;;;5115865;28;20028;-57
2021/01/09 18:30:38;;;;;;;9.70;6.67;;;;;;;;;;5116451;28;20361;-58
2021/01/09 18:33:47;;;;;;;11.47;9.60;;;;;;;;;;5113988;28;20047;-58
2021/01/09 18:36:42;;;;;;;9.73;7.67;;;;;;;;;;5052235;28;20104;-57
2021/01/09 18:39:45;;;;;;;10.10;8.90;;;;;;;;;;5036231;28;20533;-58
2021/01/09 18:42:37;;;;;;;10.30;7.07;;;;;;;;;;5035955;28;20032;-58
2021/01/09 18:45:13;;;;;;;10.57;7.30;;;;;;;;;;5052727;28;20043;-58
2021/01/09 18:48:13;;;;;;;11.37;8.67;;;;;;;;;;5036028;28;20068;-58
2021/01/09 18:51:00;;;;;;;9.73;7.97;;;;;;;;;;5035494;28;20498;-58
2021/01/09 18:53:59;;;;;;;10.17;8.17;;;;;;;;;;5052886;28;20053;-58
2021/01/09 18:56:40;;;;;;;14.10;10.07;;;;;;;;;;5035106;28;20538;-58
2021/01/09 18:59:12;;;;;;;10.93;8.10;;;;;;;;;;5052953;28;20044;-58
2021/01/09 19:01:43;;;;;;;15.40;9.37;;;;;;;;;;5036010;28;20094;-58
2021/01/09 19:04:21;;;;;;;12.73;9.00;;;;;;;;;;5052333;28;20039;-58
2021/01/09 19:06:54;;;;;;;12.23;8.30;;;;;;;;;;5071464;28;20469;-58
2021/01/09 19:09:20;;;;;;;13.60;8.73;;;;;;;;;;5112385;28;20036;-58
2021/01/09 19:12:33;;;;;;;13.07;9.43;;;;;;;;;;5115814;28;20038;-58
2021/01/09 19:15:02;;;;;;;15.77;9.27;;;;;;;;;;4974053;28;20138;-58
2021/01/09 19:17:55;;;;;;;17.17;11.73;;;;;;;;;;4973812;28;20081;-58
2021/01/09 19:20:30;;;;;;;12.90;10.50;;;;;;;;;;4957623;28;20038;-58
2021/01/09 19:23:08;;;;;;;10.80;9.23;;;;;;;;;;4973199;28;20043;-58
2021/01/09 19:26:07;;;;;;;13.43;9.27;;;;;;;;;;4973900;28;20047;-58
2021/01/09 19:28:58;;;;;;;15.40;10.47;;;;;;;;;;4974235;28;20058;-58
2021/01/09 19:31:56;;;;;;;13.15;9.15;;;;;;;;;;4973940;28;20461;-58
2021/01/09 19:40:32;;;;;;;16.10;10.07;;;;;;;;;;4958191;28;20030;-58
2021/01/09 19:43:06;;;;;;;16.30;11.33;;;;;;;;;;4981854;28;20023;-58
2021/01/09 19:45:35;;;;;;;15.73;11.40;;;;;;;;;;5047565;28;20489;-58
2021/01/09 19:48:13;;;;;;;15.87;9.90;;;;;;;;;;5075634;28;20047;-58
2021/01/09 19:51:26;;;;;;;9.70;8.63;;;;;;;;;;5070445;28;20512;-58
2021/01/09 19:54:22;;;;;;;11.73;9.10;;;;;;;;;;5077522;28;20046;-58
2021/01/09 19:57:14;;;;;;;13.37;9.73;;;;;;;;;;5078658;28;20478;-57
2021/01/09 19:59:46;;;;;;;13.63;10.50;;;;;;;;;;5098489;28;20032;-58
2021/01/09 20:02:35;;;;;;;14.87;10.70;;;;;;;;;;5075518;28;20055;-58
2021/01/09 20:05:46;;;;;;;;;;;;;;;;;;;;;
2021/01/09 20:08:21;;;;;;;11.03;8.80;;;;;;;;;;5096688;28;20046;-58
2021/01/09 20:14:01;;;;;;;;;;;;;;;;;;5099469;28;20051;-58
2021/01/09 20:16:46;;;;;;;11.47;8.23;;;;;;;;;;5074955;28;19915;-58
2021/01/09 20:19:39;;;;;;;20.07;10.60;;;;;;;;;;5075273;28;20109;-57
2021/01/09 20:22:17;;;;;;;14.60;10.80;;;;;;;;;;5027167;28;20541;-58
2021/01/09 20:28:07;;;;;;;;;;;;;;;;;;;;;
2021/01/09 20:30:34;;;;;;;11.90;9.90;;;;;;;;;;4996717;28;20458;-58
2021/01/09 20:33:21;;;;;;;11.30;9.23;;;;;;;;;;5047116;28;20482;-58
2021/01/09 20:38:47;;;;;;;13.90;9.93;;;;;;;;;;5084858;28;20505;-58